$GNVTG,219.96,T,,M,0.84,N,1.56,K,A*28
$PMTKLOG,0,1,a,31,15,0,0,1,0,0*11
$PMTK001,183,3*3A
$PMTK869,2,0,0*2B
$PMTKLOG,0,1,a,31,15,0,0,1,0,0*11
$PMTK001,183,3*3A
$PMTK869,2,0,0*2B
$GNGGA,074922.800,5445.7513,N,05600.2066,E,1,8,1.67,211.4,M,-8.2,M,,*58
$GPGSA,A,3,32,23,03,16,09,,,,,,,,1.89,1.67,0.89*0E
$GLGSA,A,3,74,71,75,,,,,,,,,,1.89,1.67,0.89*18
$GNRMC,074922.800,A,5445.7513,N,05600.2066,E,0.87,219.87,220315,,,A*7E


$GNVTG,219.87,T,,M,0.87,N,1.61,K,A*2F
$PMTKLOG,0,1,a,31,15,0,0,1,0,0*11
$PMTK001,183,3*3A
$PMTK869,2,0,0*2B
$PMTKLOG,0,1,a,31,15,0,0,1,0,0*11
$PMTK001,183,3*3A
$PMTK869,2,0,0*2B
$GNGGA,074923.000,5445.7512,N,05600.2066,E,1,8,1.67,211.4,M,-8.2,M,,*50
$GPGSA,A,3,32,23,03,16,09,,,,,,,,1.89,1.67,0.89*0E
$GLGSA,A,3,74,71,75,,,,,,,,,,1.89,1.67,0.89*18
$GPGSV,3,1,12,23,73,275,15,03,54,181,30,09,40,278,25,16,29,136,16*78
$GPGSV,3,2,12,06,26,296,14,31,26,056,,10,17,312,,32,16,150,24*77
$GPGSV,3,3,12,02,09,337,,20,09,316,,29,07,030,,07,07,225,18*7A
$GLGSV,3,1,10,72,83,300,15,74,62,187,22,73,56,051,,71,40,136,20*61
$GLGSV,3,2,10,65,28,313,,81,17,347,,75,11,207,24,80,08,035,*65
$GLGSV,3,3,10,88,08,295,,82,06,034,*69
$GNRMC,074923.000,A,5445.7512,N,05600.2066,E,0.87,219.20,220315,,,A*7B


$GNVTG,219.20,T,,M,0.87,N,1.61,K,A*22
$PMTKLOG,0,1,a,31,15,0,0,1,0,0*11
$PMTK001,183,3*3A
$PMTK869,2,0,0*2B
$PMTKLOG,0,1,a,31,15,0,0,1,0,0*11
$PMTK001,183,3*3A
$PMTK869,2,0,0*2B
$GNGGA,074923.200,5445.7512,N,05600.2065,E,1,8,1.67,211.4,M,-8.2,M,,*51
$GPGSA,A,3,32,23,03,16,09,,,,,,,,1.89,1.67,0.89*0E
$GLGSA,A,3,74,71,75,,,,,,,,,,1.89,1.67,0.89*18
$GNRMC,074923.200,A,5445.7512,N,05600.2065,E,0.86,218.56,220315,,,A*7B


$GNVTG,218.56,T,,M,0.86,N,1.60,K,A*22
$PMTKLOG,0,1,a,31,15,0,0,1,0,0*11
$PMTK001,183,3*3A
$PMTK869,2,0,0*2B
$PMTKLOG,0,1,a,31,15,0,0,1,0,0*11
$PMTK001,183,3*3A
$PMTK869,2,0,0*2B
$GNGGA,074923.400,5445.7512,N,05600.2066,E,1,8,1.67,211.3,M,-8.2,M,,*53
$GPGSA,A,3,32,23,03,16,09,,,,,,,,1.89,1.67,0.89*0E
$GLGSA,A,3,74,71,75,,,,,,,,,,1.89,1.67,0.89*18
$GNRMC,074923.400,A,5445.7512,N,05600.2066,E,0.82,218.38,220315,,,A*72


$GNVTG,218.38,T,,M,0.82,N,1.52,K,A*2F
$PMTKLOG,0,1,a,31,15,0,0,1,0,0*11
$PMTK001,183,3*3A
$PMTK869,2,0,0*2B
$PMTKLOG,0,1,a,31,15,0,0,1,0,0*11
$PMTK001,183,3*3A
$PMTK869,2,0,0*2B
$GNGGA,074923.600,5445.7512,N,05600.2065,E,1,8,1.67,211.3,M,-8.2,M,,*52
$GPGSA,A,3,32,23,03,16,09,,,,,,,,1.89,1.67,0.89*0E
$GLGSA,A,3,74,71,75,,,,,,,,,,1.89,1.67,0.89*18
$GNRMC,074923.600,A,5445.7512,N,05600.2065,E,0.79,219.85,220315,,,A*70


$GNVTG,219.85,T,,M,0.79,N,1.45,K,A*2A
$PMTKLOG,0,1,a,31,15,0,0,1,0,0*11
$PMTK001,183,3*3A
$PMTK869,2,0,0*2B
$PMTKLOG,0,1,a,31,15,0,0,1,0,0*11
$PMTK001,183,3*3A
$PMTK869,2,0,0*2B
$GNGGA,074923.800,5445.7512,N,05600.2065,E,1,8,1.67,211.3,M,-8.2,M,,*5C
$GPGSA,A,3,32,23,03,16,09,,,,,,,,1.89,1.67,0.89*0E
$GLGSA,A,3,74,71,75,,,,,,,,,,1.89,1.67,0.89*18
$GNRMC,074923.800,A,5445.7512,N,05600.2065,E,0.75,222.11,220315,,,A*77


$GNVTG,222.11,T,,M,0.75,N,1.38,K,A*29
$PMTKLOG,0,1,a,31,15,0,0,1,0,0*11
$PMTK001,183,3*3A
$PMTK869,2,0,0*2B
$PMTKLOG,0,1,a,31,15,0,0,1,0,0*11
$PMTK001,183,3*3A
$PMTK869,2,0,0*2B
$GNGGA,074924.000,5445.7512,N,05600.2064,E,1,8,1.67,211.2,M,-8.2,M,,*53
$GPGSA,A,3,32,23,03,16,09,,,,,,,,1.89,1.67,0.89*0E
$GLGSA,A,3,74,71,75,,,,,,,,,,1.89,1.67,0.89*18
$GPGSV,3,1,12,23,73,275,16,03,54,181,30,09,40,278,25,16,29,136,15*78
$GPGSV,3,2,12,06,26,296,14,31,26,056,,10,17,312,,32,16,150,26*75
$GPGSV,3,3,12,02,09,337,,20,09,316,,29,07,030,,07,07,225,18*7A
$GLGSV,3,1,10,72,83,300,16,74,62,187,22,73,56,051,,71,40,136,20*62
$GLGSV,3,2,10,65,28,313,,81,17,347,,75,11,207,25,80,08,035,*64
$GLGSV,3,3,10,88,08,295,,82,06,034,*69
$GNRMC,074924.000,A,5445.7512,N,05600.2064,E,0.71,223.70,220315,,,A*7B


$GNVTG,223.70,T,,M,0.71,N,1.32,K,A*21
$PMTKLOG,0,1,a,31,15,0,0,1,0,0*11
$PMTK001,183,3*3A
$PMTK869,2,0,0*2B
$PMTKLOG,0,1,a,31,15,0,0,1,0,0*11
$PMTK001,183,3*3A
$PMTK869,2,0,0*2B
$GNGGA,074924.200,5445.7512,N,05600.2064,E,1,8,1.67,211.2,M,-8.2,M,,*51
$GPGSA,A,3,32,23,03,16,09,,,,,,,,1.89,1.67,0.89*0E
$GLGSA,A,3,74,71,75,,,,,,,,,,1.89,1.67,0.89*18
$GNRMC,074924.200,A,5445.7512,N,05600.2064,E,0.68,225.75,220315,,,A*72


$GNVTG,225.75,T,,M,0.68,N,1.26,K,A*2F
$PMTKLOG,0,1,a,31,15,0,0,1,0,0*11
$PMTK001,183,3*3A
$PMTK869,2,0,0*2B
$PMTKLOG,0,1,a,31,15,0,0,1,0,0*11
$PMTK001,183,3*3A
$PMTK869,2,0,0*2B
$GNGGA,074924.400,5445.7512,N,05600.2063,E,1,8,1.67,211.2,M,-8.2,M,,*50
$GPGSA,A,3,32,23,03,16,09,,,,,,,,1.89,1.67,0.89*0E
$GLGSA,A,3,74,71,75,,,,,,,,,,1.89,1.67,0.89*18
$GNRMC,074924.400,A,5445.7512,N,05600.2063,E,0.68,228.63,220315,,,A*79


$GNVTG,228.63,T,,M,0.68,N,1.26,K,A*25
$PMTKLOG,0,1,a,31,15,0,0,1,0,0*11
$PMTK001,183,3*3A
$PMTK869,2,0,0*2B
$PMTKLOG,0,1,a,31,15,0,0,1,0,0*11
$PMTK001,183,3*3A
$PMTK869,2,0,0*2B
$GNGGA,074924.600,5445.7512,N,05600.2061,E,1,8,1.67,211.2,M,-8.2,M,,*50
$GPGSA,A,3,32,23,03,16,09,,,,,,,,1.89,1.67,0.89*0E
$GLGSA,A,3,74,71,75,,,,,,,,,,1.89,1.67,0.89*18
$GNRMC,074924.600,A,5445.7512,N,05600.2061,E,0.68,230.61,220315,,,A*72


$GNVTG,230.61,T,,M,0.68,N,1.27,K,A*2F
$PMTKLOG,0,1,a,31,15,0,0,1,0,0*11
$PMTK001,183,3*3A
$PMTK869,2,0,0*2B
$PMTKLOG,0,1,a,31,15,0,0,1,0,0*11
$PMTK001,183,3*3A
$PMTK869,2,0,0*2B
$GNGGA,074924.800,5445.7511,N,05600.2060,E,1,8,1.67,211.2,M,-8.2,M,,*5C
$GPGSA,A,3,32,23,03,16,09,,,,,,,,1.89,1.67,0.89*0E
$GLGSA,A,3,74,71,75,,,,,,,,,,1.89,1.67,0.89*18
$GNRMC,074924.800,A,5445.7511,N,05600.2060,E,0.71,231.99,220315,,,A*70


$GNVTG,231.99,T,,M,0.71,N,1.31,K,A*26
$PMTKLOG,0,1,a,31,15,0,0,1,0,0*11
$PMTK001,183,3*3A
$PMTK869,2,0,0*2B
$PMTKLOG,0,1,a,31,15,0,0,1,0,0*11
$PMTK001,183,3*3A
$PMTK869,2,0,0*2B
$GNGGA,074925.000,5445.7511,N,05600.2059,E,1,8,1.67,211.1,M,-8.2,M,,*5C
$GPGSA,A,3,32,23,03,16,09,,,,,,,,1.89,1.67,0.89*0E
$GLGSA,A,3,74,71,75,,,,,,,,,,1.89,1.67,0.89*18
$GPGSV,3,1,12,23,73,275,17,03,54,181,30,09,40,278,25,16,29,136,14*78
$GPGSV,3,2,12,06,26,296,14,31,26,056,,10,17,312,,32,16,150,26*75
$GPGSV,3,3,12,02,09,337,,20,09,316,,29,07,030,,07,07,225,18*7A
$GLGSV,3,1,10,72,83,300,16,74,62,187,22,73,56,051,,71,40,136,18*69
$GLGSV,3,2,10,65,28,313,,81,17,347,,75,11,207,25,80,08,035,*64
$GLGSV,3,3,10,88,08,295,,82,06,034,*69
$GNRMC,074925.000,A,5445.7511,N,05600.2059,E,0.70,232.04,220315,,,A*75


$GNVTG,232.04,T,,M,0.70,N,1.30,K,A*21
$PMTKLOG,0,1,a,31,15,0,0,1,0,0*11
$PMTK001,183,3*3A
$PMTK869,2,0,0*2B
$PMTKLOG,0,1,a,31,15,0,0,1,0,0*11
$PMTK001,183,3*3A
$PMTK869,2,0,0*2B
$GNGGA,074925.200,5445.7510,N,05600.2058,E,1,8,1.67,211.1,M,-8.2,M,,*5E
$GPGSA,A,3,32,23,03,16,09,,,,,,,,1.89,1.67,0.89*0E
$GLGSA,A,3,74,71,75,,,,,,,,,,1.89,1.67,0.89*18
$GNRMC,074925.200,A,5445.7510,N,05600.2058,E,0.69,231.91,220315,,,A*70


$GNVTG,231.91,T,,M,0.69,N,1.29,K,A*2E
$PMTKLOG,0,1,a,31,15,0,0,1,0,0*11
$PMTK001,183,3*3A
$PMTK869,2,0,0*2B
$PMTKLOG,0,1,a,31,15,0,0,1,0,0*11
$PMTK001,183,3*3A
$PMTK869,2,0,0*2B
$GNGGA,074925.400,5445.7510,N,05600.2058,E,1,8,1.67,211.1,M,-8.2,M,,*58
$GPGSA,A,3,32,23,03,16,09,,,,,,,,1.89,1.67,0.89*0E
$GLGSA,A,3,74,71,75,,,,,,,,,,1.89,1.67,0.89*18
$GNRMC,074925.400,A,5445.7510,N,05600.2058,E,0.66,231.89,220315,,,A*70


$GNVTG,231.89,T,,M,0.66,N,1.22,K,A*23
$PMTKLOG,0,1,a,31,15,0,0,1,0,0*11
$PMTK001,183,3*3A
$PMTK869,2,0,0*2B
$PMTKLOG,0,1,a,31,15,0,0,1,0,0*11
$PMTK001,183,3*3A
$PMTK869,2,0,0*2B
$GNGGA,074925.600,5445.7509,N,05600.2057,E,1,8,1.67,211.1,M,-8.2,M,,*5D
$GPGSA,A,3,32,23,03,16,09,,,,,,,,1.89,1.67,0.89*0E
$GLGSA,A,3,74,71,75,,,,,,,,,,1.89,1.67,0.89*18
$GNRMC,074925.600,A,5445.7509,N,05600.2057,E,0.64,231.85,220315,,,A*7B


$GNVTG,231.85,T,,M,0.64,N,1.18,K,A*24
$PMTKLOG,0,1,a,31,15,0,0,1,0,0*11
$PMTK001,183,3*3A
$PMTK869,2,0,0*2B
$PMTKLOG,0,1,a,31,15,0,0,1,0,0*11
$PMTK001,183,3*3A
$PMTK869,2,0,0*2B
$GNGGA,074925.800,5445.7509,N,05600.2058,E,1,8,1.67,211.0,M,-8.2,M,,*5D
$GPGSA,A,3,32,23,03,16,09,,,,,,,,1.89,1.67,0.89*0E
$GLGSA,A,3,74,71,75,,,,,,,,,,1.89,1.67,0.89*18
$GNRMC,074925.800,A,5445.7509,N,05600.2058,E,0.59,230.31,220315,,,A*7A


$GNVTG,230.31,T,,M,0.59,N,1.10,K,A*2C
$PMTKLOG,0,1,a,31,15,0,0,1,0,0*11
$PMTK001,183,3*3A
$PMTK869,2,0,0*2B
$PMTKLOG,0,1,a,31,15,0,0,1,0,0*11
$PMTK001,183,3*3A
$PMTK869,2,0,0*2B
$GNGGA,074926.000,5445.7509,N,05600.2058,E,1,8,1.67,211.0,M,-8.2,M,,*56
$GPGSA,A,3,32,23,03,16,09,,,,,,,,1.89,1.67,0.89*0E
$GLGSA,A,3,74,71,75,,,,,,,,,,1.89,1.67,0.89*18
$GPGSV,3,1,12,23,73,275,17,03,54,181,30,09,40,278,25,16,29,136,13*7F
$GPGSV,3,2,12,06,26,296,14,31,26,056,,10,17,312,,32,16,150,26*75
$GPGSV,3,3,12,02,09,337,,20,09,316,,29,07,030,,07,07,225,18*7A
$GLGSV,3,1,10,72,83,300,17,74,62,187,22,73,56,051,,71,40,136,19*69
$GLGSV,3,2,10,65,28,313,,81,17,347,,75,11,207,25,80,08,035,*64
$GLGSV,3,3,10,88,08,295,,82,06,034,*69
$GNRMC,074926.000,A,5445.7509,N,05600.2058,E,0.57,229.77,220315,,,A*75


